createdAt,value
2019-03-31T00:01:44.840Z,13.30
2019-03-31T00:04:15.271Z,14.27
2019-03-31T00:06:46.384Z,14.17
2019-03-31T00:09:17.110Z,12.97
2019-03-31T00:11:47.985Z,14.57
2019-03-31T00:14:18.438Z,14.03
2019-03-31T00:16:52.321Z,11.93
2019-03-31T00:19:21.645Z,13.73
2019-03-31T00:21:52.049Z,13.87
2019-03-31T00:24:22.628Z,13.10
2019-03-31T00:26:53.277Z,12.37
2019-03-31T00:29:24.187Z,12.03
2019-03-31T00:31:54.708Z,12.53
2019-03-31T00:34:26.283Z,11.67
2019-03-31T00:36:56.857Z,13.27
2019-03-31T00:39:27.667Z,11.47
2019-03-31T00:41:58.208Z,13.47
2019-03-31T00:44:28.824Z,11.27
2019-03-31T00:47:02.040Z,12.93
2019-03-31T00:49:31.763Z,11.87
2019-03-31T00:52:02.164Z,11.47
2019-03-31T00:54:32.639Z,12.60
2019-03-31T00:57:03.100Z,11.73
2019-03-31T00:59:33.650Z,11.03
2019-03-31T01:02:09.279Z,11.63
2019-03-31T01:04:40.329Z,11.37
2019-03-31T01:07:11.338Z,17.33
2019-03-31T01:09:42.763Z,12.77
2019-03-31T01:12:13.445Z,12.33
2019-03-31T01:14:44.017Z,11.27
2019-03-31T01:17:14.818Z,14.00
2019-03-31T01:19:45.409Z,14.83
2019-03-31T01:22:16.517Z,12.20
2019-03-31T01:24:47.373Z,13.40
2019-03-31T01:27:18.427Z,10.73
2019-03-31T01:29:49.627Z,12.77
2019-03-31T01:32:20.324Z,12.93
2019-03-31T01:34:50.926Z,11.93
2019-03-31T01:37:21.575Z,13.90
2019-03-31T01:39:52.287Z,13.70
2019-03-31T01:42:23.174Z,11.43
2019-03-31T01:44:53.675Z,10.90
2019-03-31T01:47:24.324Z,14.60
2019-03-31T01:49:54.902Z,12.93
2019-03-31T01:52:25.390Z,11.97
2019-03-31T01:54:56.633Z,11.97
2019-03-31T01:57:27.204Z,12.30
2019-03-31T01:59:57.663Z,16.50
2019-03-31T02:02:29.759Z,13.87
2019-03-31T02:05:00.390Z,13.20
2019-03-31T02:07:31.170Z,11.90
2019-03-31T02:10:01.732Z,11.70
2019-03-31T02:12:33.850Z,11.20
2019-03-31T02:15:05.776Z,16.33
2019-03-31T02:17:37.239Z,16.83
2019-03-31T02:20:07.761Z,14.23
2019-03-31T02:22:38.393Z,15.30
2019-03-31T02:25:09.079Z,14.80
2019-03-31T02:27:39.806Z,14.77
2019-03-31T02:30:10.360Z,13.83
2019-03-31T02:32:40.830Z,14.70
2019-03-31T02:35:11.748Z,13.83
2019-03-31T02:37:42.203Z,13.90
2019-03-31T02:40:12.713Z,12.90
2019-03-31T02:42:43.463Z,13.00
2019-03-31T02:45:14.092Z,13.50
2019-03-31T02:47:44.603Z,14.07
2019-03-31T02:50:30.187Z,12.20
2019-03-31T02:53:00.564Z,13.10
2019-03-31T02:55:30.932Z,12.10
2019-03-31T02:58:01.693Z,12.77
2019-03-31T03:00:32.331Z,14.10
2019-03-31T03:03:02.873Z,13.30
2019-03-31T03:05:33.660Z,14.13
2019-03-31T03:08:05.570Z,15.37
2019-03-31T03:10:36.051Z,12.90
2019-03-31T03:13:07.025Z,13.17
2019-03-31T03:15:46.133Z,12.23
2019-03-31T03:18:16.859Z,14.10
2019-03-31T03:20:47.282Z,14.40
2019-03-31T03:23:17.779Z,14.87
2019-03-31T03:25:56.393Z,15.73
2019-03-31T03:28:21.083Z,15.10
2019-03-31T03:30:51.617Z,12.27
2019-03-31T03:33:22.199Z,14.33
2019-03-31T03:35:52.665Z,16.30
2019-03-31T03:38:24.361Z,14.00
2019-03-31T03:40:54.984Z,13.50
2019-03-31T03:43:25.679Z,12.83
2019-03-31T03:45:56.274Z,14.90
2019-03-31T03:48:27.015Z,16.40
2019-03-31T03:50:57.970Z,16.27
2019-03-31T03:53:28.532Z,15.20
2019-03-31T03:55:59.106Z,15.43
2019-03-31T03:58:29.998Z,14.10
2019-03-31T04:01:01.327Z,14.07
2019-03-31T04:03:31.720Z,14.43
2019-03-31T04:06:02.458Z,13.17
2019-03-31T04:08:32.988Z,14.33
2019-03-31T04:11:11.133Z,14.53
2019-03-31T04:13:41.643Z,13.63
2019-03-31T04:16:12.065Z,13.70
2019-03-31T04:18:42.710Z,13.27
2019-03-31T04:21:13.271Z,14.40
2019-03-31T04:23:43.764Z,16.27
2019-03-31T04:26:14.266Z,13.80
2019-03-31T04:28:45.165Z,15.07
2019-03-31T04:31:15.745Z,16.07
2019-03-31T04:33:51.811Z,15.50
2019-03-31T04:36:18.407Z,13.43
2019-03-31T04:38:48.997Z,11.80
2019-03-31T04:41:20.719Z,13.70
2019-03-31T04:43:51.247Z,14.80
2019-03-31T04:46:22.062Z,13.10
2019-03-31T04:48:52.649Z,12.57
2019-03-31T04:51:23.114Z,10.87
2019-03-31T04:53:53.724Z,13.67
2019-03-31T04:56:24.105Z,12.20
2019-03-31T04:58:54.458Z,12.10
2019-03-31T05:01:25.297Z,12.30
2019-03-31T05:04:04.545Z,13.27
2019-03-31T05:06:28.113Z,12.87
2019-03-31T05:08:58.934Z,12.07
2019-03-31T05:11:29.385Z,11.83
2019-03-31T05:13:59.757Z,12.97
2019-03-31T05:16:30.219Z,12.07
2019-03-31T05:19:00.933Z,11.00
2019-03-31T05:21:31.367Z,11.90
2019-03-31T05:24:02.625Z,12.03
2019-03-31T05:26:33.670Z,12.30
2019-03-31T05:29:04.212Z,13.23
2019-03-31T05:31:34.859Z,12.00
2019-03-31T05:34:18.516Z,13.23
2019-03-31T05:36:37.450Z,12.80
2019-03-31T05:39:08.292Z,13.47
2019-03-31T05:41:38.787Z,14.37
2019-03-31T05:44:09.225Z,14.60
2019-03-31T05:46:39.879Z,14.00
2019-03-31T05:49:10.600Z,13.73
2019-03-31T05:51:41.546Z,14.20
2019-03-31T05:54:12.108Z,13.60
2019-03-31T05:56:42.642Z,13.00
2019-03-31T05:59:13.420Z,13.23
2019-03-31T06:01:44.238Z,13.57
2019-03-31T06:04:14.743Z,12.63
2019-03-31T06:06:45.090Z,13.07
2019-03-31T06:09:15.438Z,13.50
2019-03-31T06:11:46.188Z,13.23
2019-03-31T06:14:16.883Z,14.50
2019-03-31T06:16:47.432Z,13.80
2019-03-31T06:19:17.871Z,12.37
2019-03-31T06:21:48.414Z,12.63
2019-03-31T06:24:18.868Z,12.43
2019-03-31T06:26:49.482Z,12.43
2019-03-31T06:29:20.034Z,13.87
2019-03-31T06:31:50.757Z,15.87
2019-03-31T06:34:21.311Z,13.93
2019-03-31T06:36:51.851Z,12.07
2019-03-31T06:39:23.031Z,14.30
2019-03-31T06:41:53.667Z,14.73
2019-03-31T06:44:24.466Z,12.90
2019-03-31T06:46:54.976Z,13.53
2019-03-31T06:49:25.502Z,13.20
2019-03-31T06:51:56.071Z,15.47
2019-03-31T06:54:26.572Z,12.47
2019-03-31T06:56:57.497Z,14.33
2019-03-31T06:59:28.036Z,12.87
2019-03-31T07:01:58.485Z,13.00
2019-03-31T07:04:29.231Z,13.70
2019-03-31T07:06:59.821Z,14.40
2019-03-31T07:09:30.391Z,13.70
2019-03-31T07:12:01.128Z,13.87
2019-03-31T07:14:31.669Z,15.50
2019-03-31T07:17:02.281Z,13.53
2019-03-31T07:19:32.917Z,15.23
2019-03-31T07:22:03.332Z,13.17
2019-03-31T07:24:33.879Z,13.00
2019-03-31T07:27:04.511Z,14.10
2019-03-31T07:29:35.128Z,14.10
2019-03-31T07:32:05.705Z,13.03
2019-03-31T07:34:37.010Z,12.73
2019-03-31T07:37:07.990Z,11.57
2019-03-31T07:39:38.552Z,12.63
2019-03-31T07:42:09.216Z,11.57
2019-03-31T07:44:39.906Z,12.77
2019-03-31T07:47:11.229Z,12.20
2019-03-31T07:49:41.982Z,12.07
2019-03-31T07:52:12.994Z,12.03
2019-03-31T07:54:43.651Z,12.33
2019-03-31T07:57:14.476Z,11.93
2019-03-31T07:59:45.346Z,10.83
2019-03-31T08:02:15.974Z,11.43
2019-03-31T08:04:46.728Z,13.13
2019-03-31T08:07:19.278Z,15.90
2019-03-31T08:09:52.432Z,12.87
2019-03-31T08:12:23.030Z,12.07
2019-03-31T08:14:54.111Z,11.80
2019-03-31T08:17:25.180Z,13.53
2019-03-31T08:19:58.067Z,11.50
2019-03-31T08:22:29.042Z,10.57
2019-03-31T08:25:00.467Z,10.90
2019-03-31T08:27:33.806Z,13.60
2019-03-31T08:30:05.772Z,12.07
2019-03-31T08:32:38.168Z,10.40
2019-03-31T08:35:09.874Z,11.10
2019-03-31T08:37:40.977Z,11.70
2019-03-31T08:40:11.814Z,11.37
2019-03-31T08:42:43.066Z,11.97
2019-03-31T08:45:14.119Z,11.23
2019-03-31T08:47:44.701Z,9.80
2019-03-31T08:50:15.338Z,10.37
2019-03-31T08:52:46.527Z,10.97
2019-03-31T08:55:17.543Z,11.60
2019-03-31T08:57:48.355Z,10.63
2019-03-31T09:00:41.270Z,11.20
2019-03-31T09:03:14.135Z,11.13
2019-03-31T09:05:45.438Z,10.80
2019-03-31T09:08:16.591Z,10.77
2019-03-31T09:10:47.586Z,11.47
2019-03-31T09:14:32.937Z,11.57
2019-03-31T09:17:15.706Z,11.80
2019-03-31T09:19:46.519Z,11.03
2019-03-31T09:22:19.567Z,11.13
2019-03-31T09:24:53.582Z,10.40
2019-03-31T09:27:25.341Z,11.13
2019-03-31T09:30:18.538Z,10.80
2019-03-31T09:32:48.967Z,10.80
2019-03-31T09:35:19.604Z,10.60
2019-03-31T09:37:56.258Z,10.53
2019-03-31T09:40:26.752Z,10.87
2019-03-31T09:42:57.693Z,11.30
2019-03-31T09:45:28.329Z,10.87
2019-03-31T09:47:59.104Z,11.30
2019-03-31T09:50:30.111Z,11.40
2019-03-31T09:53:04.171Z,10.43
2019-03-31T09:55:34.891Z,11.07
2019-03-31T09:58:06.158Z,10.47
2019-03-31T10:00:45.160Z,9.93
2019-03-31T10:03:15.812Z,9.63
2019-03-31T10:05:48.343Z,9.90
2019-03-31T10:08:21.984Z,11.17
2019-03-31T10:10:51.301Z,10.90
2019-03-31T10:13:22.154Z,13.17
2019-03-31T10:15:53.154Z,11.90
2019-03-31T10:18:23.678Z,12.37
2019-03-31T10:20:54.282Z,11.77
2019-03-31T10:23:24.970Z,13.10
2019-03-31T10:25:56.204Z,13.13
2019-03-31T10:28:26.735Z,12.97
2019-03-31T10:30:57.427Z,12.60
2019-03-31T10:33:28.277Z,12.53
2019-03-31T10:35:58.991Z,12.90
2019-03-31T10:38:29.662Z,13.97
2019-03-31T10:41:00.095Z,12.83
2019-03-31T10:43:31.117Z,13.13
2019-03-31T10:46:01.843Z,13.13
2019-03-31T10:48:32.373Z,13.97
2019-03-31T10:51:02.796Z,15.23
2019-03-31T10:53:33.657Z,15.10
2019-03-31T10:56:04.620Z,12.87
2019-03-31T10:58:35.195Z,12.50
2019-03-31T11:01:05.734Z,15.10
2019-03-31T11:03:36.385Z,13.23
2019-03-31T11:06:07.007Z,13.83
2019-03-31T11:08:37.648Z,14.20
2019-03-31T11:11:08.552Z,13.70
2019-03-31T11:13:39.303Z,15.13
2019-03-31T11:16:09.862Z,13.60
2019-03-31T11:18:40.557Z,12.40
2019-03-31T11:21:22.023Z,13.10
2019-03-31T11:23:52.876Z,12.07
2019-03-31T11:26:24.004Z,11.93
2019-03-31T11:28:59.848Z,12.53
2019-03-31T11:31:30.682Z,11.13
2019-03-31T11:34:01.753Z,10.67
2019-03-31T11:36:32.290Z,12.20
2019-03-31T11:39:02.962Z,11.33
2019-03-31T11:41:33.611Z,12.33
2019-03-31T11:44:04.952Z,12.13
2019-03-31T11:46:36.113Z,11.33
2019-03-31T11:49:06.690Z,10.63
2019-03-31T11:51:37.306Z,8.87
2019-03-31T11:54:14.247Z,10.07
2019-03-31T11:56:46.931Z,9.07
2019-03-31T11:59:21.046Z,10.73
2019-03-31T12:01:52.153Z,10.83
2019-03-31T12:04:23.635Z,12.80
2019-03-31T12:07:08.188Z,12.27
2019-03-31T12:09:38.979Z,10.57
2019-03-31T12:12:10.041Z,10.73
2019-03-31T12:14:40.556Z,9.97
2019-03-31T12:17:11.375Z,10.43
2019-03-31T12:19:42.263Z,8.50
2019-03-31T12:22:13.317Z,8.43
2019-03-31T12:24:44.067Z,10.97
2019-03-31T12:27:14.852Z,9.70
2019-03-31T12:29:45.699Z,8.20
2019-03-31T12:32:16.220Z,9.17
2019-03-31T12:34:46.807Z,7.33
2019-03-31T12:37:18.431Z,9.73
2019-03-31T12:39:49.168Z,8.80
2019-03-31T12:42:19.810Z,8.73
2019-03-31T12:44:50.540Z,7.67
2019-03-31T12:47:21.455Z,7.40
2019-03-31T12:49:52.016Z,7.40
2019-03-31T12:52:23.220Z,8.80
2019-03-31T12:54:55.461Z,13.37
2019-03-31T12:57:26.316Z,16.67
2019-03-31T12:59:57.112Z,14.97
2019-03-31T13:02:27.987Z,16.87
2019-03-31T13:04:58.793Z,15.93
2019-03-31T13:07:29.868Z,17.23
2019-03-31T13:10:01.450Z,15.47
2019-03-31T13:12:34.936Z,16.63
2019-03-31T13:15:04.670Z,16.40
2019-03-31T13:17:35.295Z,14.50
2019-03-31T13:20:06.920Z,15.17
2019-03-31T13:22:38.417Z,16.33
2019-03-31T13:25:11.061Z,16.43
2019-03-31T13:27:44.812Z,17.20
2019-03-31T13:30:15.713Z,17.97
2019-03-31T13:32:48.458Z,17.80
2019-03-31T13:35:19.435Z,17.40
2019-03-31T13:37:51.184Z,17.30
2019-03-31T13:40:22.325Z,19.73
2019-03-31T13:42:53.322Z,16.70
2019-03-31T13:45:24.358Z,17.90
2019-03-31T13:47:58.493Z,19.73
2019-03-31T13:50:29.209Z,18.83
2019-03-31T13:53:00.587Z,20.17
2019-03-31T13:55:31.680Z,18.90
2019-03-31T13:58:04.705Z,18.53
2019-03-31T14:00:43.957Z,19.60
2019-03-31T14:03:15.436Z,17.73
2019-03-31T14:05:46.551Z,15.63
2019-03-31T14:08:25.874Z,14.90
2019-03-31T14:10:57.056Z,18.03
2019-03-31T14:13:32.059Z,18.00
2019-03-31T14:16:04.222Z,19.30
2019-03-31T14:18:34.851Z,22.53
2019-03-31T14:21:15.843Z,22.63
2019-03-31T14:23:49.681Z,23.40
2019-03-31T14:26:22.050Z,25.47
2019-03-31T14:28:52.790Z,28.33
2019-03-31T14:31:23.288Z,30.00
2019-03-31T14:33:55.447Z,31.50
2019-03-31T14:36:26.511Z,34.90
2019-03-31T14:38:57.560Z,39.43
2019-03-31T14:41:29.481Z,36.50
2019-03-31T14:44:01.120Z,32.00
2019-03-31T14:46:32.688Z,37.03
2019-03-31T14:49:04.830Z,39.90
2019-03-31T14:51:35.901Z,39.10
2019-03-31T14:54:07.057Z,40.80
2019-03-31T14:56:38.170Z,40.80
2019-03-31T14:59:09.547Z,38.30
2019-03-31T15:01:40.751Z,36.47
2019-03-31T15:04:11.378Z,37.77
2019-03-31T15:06:42.238Z,38.03
2019-03-31T15:09:14.344Z,37.90
2019-03-31T15:11:45.753Z,39.03
2019-03-31T15:14:16.480Z,33.57
2019-03-31T15:16:48.584Z,37.67
2019-03-31T15:19:19.565Z,39.37
2019-03-31T15:21:50.957Z,37.40
2019-03-31T15:24:22.158Z,39.33
2019-03-31T15:26:53.429Z,37.13
2019-03-31T15:29:24.255Z,37.30
2019-03-31T15:31:55.216Z,35.23
2019-03-31T15:34:25.899Z,32.83
2019-03-31T15:36:57.008Z,34.67
2019-03-31T15:39:27.490Z,34.03
2019-03-31T15:41:58.577Z,34.97
2019-03-31T15:44:29.239Z,35.67
2019-03-31T15:46:59.961Z,31.30
2019-03-31T15:49:30.870Z,32.73
2019-03-31T15:52:01.718Z,31.50
2019-03-31T15:54:32.642Z,31.77
2019-03-31T15:57:03.218Z,32.60
2019-03-31T15:59:33.891Z,32.20
2019-03-31T16:02:04.737Z,31.00
2019-03-31T16:04:35.542Z,29.87
2019-03-31T16:07:06.908Z,29.73
2019-03-31T16:09:36.920Z,29.17
2019-03-31T16:12:06.920Z,28.97
2019-03-31T16:14:37.325Z,30.63
2019-03-31T16:17:07.875Z,28.63
2019-03-31T16:22:27.447Z,26.67
2019-03-31T16:25:01.320Z,30.70
2019-03-31T16:27:32.434Z,30.67
2019-03-31T16:30:02.076Z,31.00
2019-03-31T16:32:31.666Z,27.87
2019-03-31T16:35:01.333Z,28.97
2019-03-31T16:37:31.986Z,30.40
2019-03-31T16:40:02.255Z,28.53
2019-03-31T16:42:32.964Z,27.23
2019-03-31T16:45:03.311Z,29.10
2019-03-31T16:47:34.628Z,27.97
2019-03-31T16:50:05.277Z,28.50
2019-03-31T16:52:35.715Z,27.87
2019-03-31T16:55:06.038Z,27.23
2019-03-31T16:57:38.379Z,25.53
2019-03-31T17:00:08.656Z,25.17
2019-03-31T17:02:38.900Z,24.97
2019-03-31T17:05:21.245Z,22.17
2019-03-31T17:07:41.445Z,22.43
2019-03-31T17:10:11.809Z,23.03
2019-03-31T17:12:42.153Z,21.87
2019-03-31T17:15:25.119Z,23.47
2019-03-31T17:17:55.271Z,22.03
2019-03-31T17:20:25.354Z,22.83
2019-03-31T17:22:55.917Z,23.03
2019-03-31T17:25:25.910Z,22.80
2019-03-31T17:27:56.299Z,22.23
2019-03-31T17:30:26.868Z,23.43
2019-03-31T17:32:57.082Z,23.83
2019-03-31T17:35:29.641Z,24.27
2019-03-31T17:38:06.857Z,24.47
2019-03-31T17:40:38.874Z,25.80
2019-03-31T17:43:19.157Z,24.43
2019-03-31T17:45:50.066Z,29.90
2019-03-31T17:48:21.649Z,31.70
2019-03-31T17:50:56.305Z,28.93
2019-03-31T17:53:29.157Z,29.73
2019-03-31T17:56:14.001Z,30.33
2019-03-31T17:58:44.348Z,29.07
2019-03-31T18:01:15.715Z,27.53
2019-03-31T18:03:47.049Z,25.63
2019-03-31T18:06:18.152Z,28.07
2019-03-31T18:08:52.549Z,26.77
2019-03-31T18:11:23.456Z,27.73
2019-03-31T18:13:53.870Z,27.03
2019-03-31T18:16:24.443Z,27.03
2019-03-31T18:18:54.667Z,27.27
2019-03-31T18:21:27.200Z,24.40
2019-03-31T18:23:56.648Z,26.00
2019-03-31T18:26:26.815Z,26.77
2019-03-31T18:28:57.739Z,27.17
2019-03-31T18:31:28.018Z,26.60
2019-03-31T18:33:58.118Z,26.17
2019-03-31T18:36:36.508Z,25.80
2019-03-31T18:39:00.958Z,26.00
2019-03-31T18:41:31.956Z,25.20
2019-03-31T18:44:02.224Z,24.93
2019-03-31T18:46:32.855Z,25.97
2019-03-31T18:49:03.320Z,26.67
2019-03-31T18:51:35.218Z,24.73
2019-03-31T18:54:24.458Z,26.17
2019-03-31T18:57:02.525Z,28.97
2019-03-31T19:00:07.122Z,24.30
2019-03-31T19:03:03.222Z,27.13
2019-03-31T19:05:46.007Z,26.20
2019-03-31T19:08:32.969Z,27.90
2019-03-31T19:11:20.925Z,29.07
2019-03-31T19:14:16.439Z,29.67
2019-03-31T19:17:06.119Z,25.17
2019-03-31T19:20:07.532Z,28.93
2019-03-31T19:22:56.301Z,30.43
2019-03-31T19:25:45.917Z,29.20
2019-03-31T19:28:44.231Z,26.43
2019-03-31T19:31:33.334Z,27.53
2019-03-31T19:34:34.637Z,31.40
2019-03-31T19:37:13.847Z,31.63
2019-03-31T19:40:15.102Z,32.60
2019-03-31T19:43:04.295Z,31.73
2019-03-31T19:45:52.820Z,28.70
2019-03-31T19:48:50.790Z,30.87
2019-03-31T19:51:38.826Z,35.60
2019-03-31T19:54:23.204Z,33.07
2019-03-31T19:57:12.130Z,37.03
2019-03-31T20:00:08.550Z,34.57
2019-03-31T20:02:45.496Z,29.43
2019-03-31T20:05:35.227Z,34.93
2019-03-31T20:08:24.118Z,30.00
2019-03-31T20:11:12.779Z,32.97
2019-03-31T20:13:58.489Z,31.80
2019-03-31T20:16:48.222Z,32.47
2019-03-31T20:19:25.784Z,32.67
2019-03-31T20:22:02.387Z,30.70
2019-03-31T20:25:07.327Z,30.07
2019-03-31T20:27:59.439Z,28.40
2019-03-31T20:31:00.050Z,30.27
2019-03-31T20:33:48.599Z,28.63
2019-03-31T20:36:44.620Z,28.37
2019-03-31T20:39:34.234Z,28.50
2019-03-31T20:42:29.350Z,26.90
2019-03-31T20:45:01.641Z,28.67
2019-03-31T20:47:31.903Z,27.17
2019-03-31T20:50:07.567Z,28.93
2019-03-31T20:52:37.907Z,25.63
2019-03-31T20:55:16.283Z,25.83
2019-03-31T20:57:40.156Z,24.77
2019-03-31T21:00:12.046Z,28.63
2019-03-31T21:02:42.877Z,28.63
2019-03-31T21:05:14.227Z,25.97
2019-03-31T21:07:44.679Z,25.17
2019-03-31T21:10:16.754Z,25.40
2019-03-31T21:12:46.957Z,27.77
2019-03-31T21:15:22.094Z,27.23
2019-03-31T21:17:52.224Z,24.63
2019-03-31T21:20:23.695Z,24.60
2019-03-31T21:22:53.916Z,26.37
2019-03-31T21:25:24.478Z,27.83
2019-03-31T21:27:54.723Z,28.53
2019-03-31T21:30:26.369Z,25.50
2019-03-31T21:32:56.616Z,25.07
2019-03-31T21:35:26.908Z,26.57
2019-03-31T21:37:57.191Z,26.57
2019-03-31T21:40:27.892Z,25.70
2019-03-31T21:42:58.212Z,24.07
2019-03-31T21:45:28.430Z,25.77
2019-03-31T21:47:58.785Z,26.70
2019-03-31T21:50:29.907Z,25.23
2019-03-31T21:52:59.886Z,24.53
2019-03-31T21:55:30.239Z,23.87
2019-03-31T21:58:00.264Z,23.00
2019-03-31T22:00:50.087Z,25.33
2019-03-31T22:03:20.372Z,25.27
2019-03-31T22:05:50.486Z,24.67
2019-03-31T22:08:20.943Z,22.73
2019-03-31T22:10:51.086Z,21.90
2019-03-31T22:13:21.222Z,21.77
2019-03-31T22:15:51.561Z,21.37
2019-03-31T22:18:21.339Z,23.80
2019-03-31T22:20:50.844Z,25.43
2019-03-31T22:23:20.402Z,26.50
2019-03-31T22:25:49.954Z,28.53
2019-03-31T22:28:19.458Z,24.90
2019-03-31T22:30:50.034Z,28.60
2019-03-31T22:33:19.951Z,27.47
2019-03-31T22:36:07.427Z,31.00
2019-03-31T22:38:37.071Z,30.60
2019-03-31T22:41:06.597Z,29.97
2019-03-31T22:43:36.279Z,27.37
2019-03-31T22:46:05.986Z,26.87
2019-03-31T22:48:35.818Z,28.90
2019-03-31T22:51:05.336Z,26.53
2019-03-31T22:53:35.369Z,27.53
2019-03-31T22:56:05.023Z,30.53
2019-03-31T22:58:34.847Z,29.07
2019-03-31T23:01:04.626Z,28.40
2019-03-31T23:03:34.219Z,27.00
2019-03-31T23:06:03.721Z,27.93
2019-03-31T23:08:33.318Z,26.53
2019-03-31T23:11:03.826Z,26.37
2019-03-31T23:13:33.334Z,28.57
2019-03-31T23:16:03.338Z,33.10
2019-03-31T23:18:32.933Z,27.10
2019-03-31T23:21:02.596Z,26.40
2019-03-31T23:23:32.218Z,26.77
2019-03-31T23:26:03.497Z,26.63
2019-03-31T23:28:33.117Z,27.40
2019-03-31T23:31:03.786Z,28.10
2019-03-31T23:33:33.530Z,26.80
2019-03-31T23:36:03.050Z,27.20
2019-03-31T23:38:32.582Z,26.13
2019-03-31T23:41:02.159Z,28.10
2019-03-31T23:43:32.757Z,26.73
2019-03-31T23:46:02.638Z,25.20
2019-03-31T23:48:32.175Z,26.90
2019-03-31T23:51:01.665Z,25.70
2019-03-31T23:53:31.330Z,28.57
2019-03-31T23:56:00.866Z,30.70
2019-03-31T23:58:31.526Z,26.60
